Time;durP1;ratioP1;P1;durP2;ratioP2;P2;SDS_P1;SDS_P2;PMS_P1;PMS_P2;Temp;Humidity;BMP_temperature;BMP_pressure;BME280_temperature;BME280_humidity;BME280_pressure;Samples;Min_cycle;Max_cycle;Signal;HPM_P1;HPM_P2
2021/05/03 00:02:18;;;;;;;13.02;9.85;;;9.20;69.20;;;;;;4947561;29;20270;-64
2021/05/03 00:04:43;;;;;;;12.02;9.65;;;9.10;69.00;;;;;;4946365;29;20103;-64
2021/05/03 00:07:09;;;;;;;11.75;10.07;;;9.30;69.30;;;;;;4945514;29;20036;-64
2021/05/03 00:09:34;;;;;;;12.50;9.88;;;9.30;69.10;;;;;;4945808;29;20040;-64
2021/05/03 00:12:00;;;;;;;11.45;9.35;;;9.30;69.00;;;;;;4945767;29;20342;-65
2021/05/03 00:14:25;;;;;;;12.25;9.65;;;9.30;68.90;;;;;;4947646;29;20106;-64
2021/05/03 00:16:51;;;;;;;12.73;9.35;;;9.30;69.10;;;;;;4946145;29;20039;-65
2021/05/03 00:19:17;;;;;;;13.95;10.15;;;9.40;68.70;;;;;;4929079;29;20047;-64
2021/05/03 00:21:42;;;;;;;12.48;9.68;;;9.40;68.70;;;;;;4945459;29;20090;-65
2021/05/03 00:24:08;;;;;;;11.20;9.45;;;9.30;69.20;;;;;;4945738;29;20065;-64
2021/05/03 00:26:34;;;;;;;11.50;9.32;;;9.30;69.10;;;;;;4947594;29;20039;-64
2021/05/03 00:28:59;;;;;;;11.63;9.38;;;9.30;69.20;;;;;;4945637;29;20038;-64
2021/05/03 00:31:25;;;;;;;11.85;9.38;;;9.30;69.20;;;;;;4945725;29;20107;-65
2021/05/03 00:33:50;;;;;;;13.20;9.45;;;9.30;69.00;;;;;;4945487;29;20055;-64
2021/05/03 00:36:16;;;;;;;11.70;9.27;;;9.30;69.00;;;;;;4928534;29;20043;-64
2021/05/03 00:38:41;;;;;;;10.82;8.68;;;9.30;69.00;;;;;;4947430;29;20040;-64
2021/05/03 00:41:07;;;;;;;13.98;9.98;;;9.30;69.20;;;;;;4945768;29;20051;-64
2021/05/03 00:43:33;;;;;;;10.60;8.55;;;9.30;69.20;;;;;;4928267;29;20043;-65
2021/05/03 00:45:58;;;;;;;10.93;9.23;;;9.30;69.70;;;;;;4943972;29;20040;-65
2021/05/03 00:48:24;;;;;;;11.05;8.90;;;9.30;69.40;;;;;;4944768;29;20040;-65
2021/05/03 00:50:50;;;;;;;11.32;8.65;;;9.30;69.20;;;;;;4946999;29;20381;-65
2021/05/03 00:53:15;;;;;;;11.23;8.68;;;9.30;69.10;;;;;;4945628;29;20144;-65
2021/05/03 00:55:42;;;;;;;11.25;8.77;;;9.30;69.50;;;;;;4944659;29;20282;-65
2021/05/03 00:58:07;;;;;;;9.88;8.00;;;9.30;69.60;;;;;;4945003;29;20064;-65
2021/05/03 01:00:33;;;;;;;11.98;8.18;;;9.40;69.50;;;;;;4928390;29;20040;-65
2021/05/03 01:02:59;;;;;;;11.65;8.75;;;9.30;69.50;;;;;;4943855;29;20087;-64
2021/05/03 01:05:28;;;;;;;10.52;7.78;;;9.30;69.40;;;;;;4946386;29;20099;-64
2021/05/03 01:07:54;;;;;;;10.95;8.70;;;9.30;70.20;;;;;;4944514;29;20044;-65
2021/05/03 01:10:20;;;;;;;10.80;8.13;;;9.20;70.30;;;;;;4945143;29;20419;-65
2021/05/03 01:12:45;;;;;;;11.07;8.30;;;9.30;70.00;;;;;;4944803;29;20040;-64
2021/05/03 01:15:12;;;;;;;11.23;8.05;;;9.30;69.80;;;;;;4944921;29;20201;-64
2021/05/03 01:17:40;;;;;;;9.18;7.45;;;9.40;69.60;;;;;;4929880;29;20096;-64
2021/05/03 01:20:13;;;;;;;9.43;7.82;;;9.40;69.50;;;;;;4945354;29;20224;-64
2021/05/03 01:22:39;;;;;;;9.27;7.45;;;9.30;69.20;;;;;;4944799;29;20351;-64
2021/05/03 01:25:06;;;;;;;10.60;8.07;;;9.40;69.40;;;;;;4945082;29;20043;-64
2021/05/03 01:27:31;;;;;;;10.85;7.57;;;9.40;69.30;;;;;;4944677;29;20039;-64
2021/05/03 01:29:57;;;;;;;9.95;7.60;;;9.40;69.20;;;;;;4945215;29;20059;-64
2021/05/03 01:32:22;;;;;;;9.60;7.85;;;9.40;69.20;;;;;;4946428;29;20088;-64
2021/05/03 01:34:48;;;;;;;10.27;7.80;;;9.30;69.70;;;;;;4945382;29;20090;-64
2021/05/03 01:37:14;;;;;;;10.45;7.80;;;9.30;69.50;;;;;;4944714;29;20036;-64
2021/05/03 01:39:40;;;;;;;11.20;8.50;;;9.30;69.70;;;;;;4944962;29;20040;-64
2021/05/03 01:42:05;;;;;;;12.05;8.82;;;9.30;69.70;;;;;;4944617;29;20051;-64
2021/05/03 01:44:31;;;;;;;11.30;8.30;;;9.30;69.70;;;;;;4946895;29;20036;-64
2021/05/03 01:46:56;;;;;;;10.80;8.85;;;9.20;69.60;;;;;;4944892;29;20115;-64
2021/05/03 01:49:22;;;;;;;14.52;8.52;;;9.10;70.00;;;;;;4928061;29;20040;-64
2021/05/03 01:51:48;;;;;;;11.10;7.80;;;9.10;70.10;;;;;;4944232;29;20040;-64
2021/05/03 01:54:14;;;;;;;10.68;8.45;;;9.00;70.10;;;;;;4944434;29;20036;-64
2021/05/03 01:56:39;;;;;;;10.57;8.48;;;9.00;70.40;;;;;;4946722;29;20307;-64
2021/05/03 01:59:06;;;;;;;12.68;8.80;;;9.10;70.50;;;;;;4927814;29;20055;-64
2021/05/03 02:01:31;;;;;;;12.55;9.40;;;8.90;70.10;;;;;;4944282;29;20343;-64
2021/05/03 02:03:57;;;;;;;14.35;9.95;;;9.00;70.70;;;;;;4944507;29;20047;-63
2021/05/03 02:06:22;;;;;;;13.73;10.50;;;8.90;70.70;;;;;;4944700;29;20087;-63
2021/05/03 02:08:49;;;;;;;13.82;9.57;;;9.00;70.70;;;;;;4946315;29;20063;-64
2021/05/03 02:11:14;;;;;;;11.55;9.02;;;9.10;70.20;;;;;;4945020;29;20060;-64
2021/05/03 02:13:40;;;;;;;12.40;9.15;;;9.10;70.50;;;;;;4944768;29;20083;-64
2021/05/03 02:16:06;;;;;;;12.00;8.82;;;8.90;70.20;;;;;;4944539;29;20095;-64
2021/05/03 02:18:31;;;;;;;15.00;10.40;;;9.00;70.80;;;;;;4946420;29;20050;-63
2021/05/03 02:20:57;;;;;;;15.35;10.43;;;9.00;70.90;;;;;;4947615;29;20091;-63
2021/05/03 02:23:22;;;;;;;13.00;9.98;;;8.90;71.00;;;;;;4949707;29;20042;-64
2021/05/03 02:25:48;;;;;;;11.52;8.93;;;9.00;71.00;;;;;;4948249;29;20043;-64
2021/05/03 02:28:13;;;;;;;14.93;9.85;;;9.00;71.10;;;;;;4947632;29;20058;-64
2021/05/03 02:30:40;;;;;;;12.23;9.23;;;8.90;71.00;;;;;;4930919;29;20032;-63
2021/05/03 02:33:05;;;;;;;13.07;9.88;;;8.90;70.90;;;;;;4930924;29;20095;-64
2021/05/03 02:35:33;;;;;;;12.45;9.63;;;8.90;71.20;;;;;;4949204;29;20031;-63
2021/05/03 02:38:00;;;;;;;13.48;9.75;;;9.00;71.20;;;;;;4947554;29;20039;-63
2021/05/03 02:40:25;;;;;;;11.65;9.15;;;8.90;71.40;;;;;;4930535;29;20035;-63
2021/05/03 02:42:52;;;;;;;12.13;9.52;;;8.90;71.40;;;;;;4947401;29;20035;-63
2021/05/03 02:45:18;;;;;;;13.13;9.68;;;8.90;71.40;;;;;;4947414;29;20318;-64
2021/05/03 02:47:44;;;;;;;12.27;9.35;;;8.90;71.30;;;;;;4949475;29;20087;-63
2021/05/03 02:50:10;;;;;;;14.30;9.80;;;8.90;71.40;;;;;;4947836;29;20071;-64
2021/05/03 02:52:36;;;;;;;11.95;9.20;;;9.00;71.30;;;;;;4947203;29;20354;-64
2021/05/03 02:55:02;;;;;;;16.10;10.45;;;8.90;71.30;;;;;;4947074;29;20047;-64
2021/05/03 02:57:28;;;;;;;12.60;10.07;;;8.80;71.40;;;;;;4946680;29;20032;-64
2021/05/03 02:59:53;;;;;;;14.35;10.48;;;8.90;71.60;;;;;;4947660;29;20315;-64
2021/05/03 03:02:19;;;;;;;12.50;9.55;;;8.90;71.50;;;;;;4948902;29;20035;-64
2021/05/03 03:04:44;;;;;;;12.63;9.43;;;8.80;71.30;;;;;;4930683;29;20267;-64
2021/05/03 03:07:10;;;;;;;13.05;10.13;;;8.90;71.80;;;;;;4914136;29;20044;-65
2021/05/03 03:09:35;;;;;;;13.63;10.50;;;8.90;71.60;;;;;;4946924;29;20039;-64
2021/05/03 03:12:01;;;;;;;13.75;10.15;;;8.90;71.60;;;;;;4929447;29;20028;-65
2021/05/03 03:14:27;;;;;;;14.35;10.05;;;8.90;71.90;;;;;;4948812;29;20058;-64
2021/05/03 03:16:53;;;;;;;12.25;9.63;;;9.00;71.50;;;;;;4946953;29;20086;-64
2021/05/03 03:19:18;;;;;;;11.43;9.40;;;9.00;71.40;;;;;;4929861;29;20046;-64
2021/05/03 03:21:44;;;;;;;13.13;9.90;;;9.00;71.20;;;;;;4947117;29;20040;-64
2021/05/03 03:24:10;;;;;;;14.27;10.07;;;9.10;71.20;;;;;;4946554;29;20043;-64
2021/05/03 03:26:35;;;;;;;13.20;10.13;;;9.00;71.50;;;;;;4931582;29;20105;-64
2021/05/03 03:29:01;;;;;;;13.23;10.10;;;8.90;71.30;;;;;;4929249;29;20062;-64
2021/05/03 03:31:27;;;;;;;14.65;10.73;;;8.90;71.50;;;;;;4946587;29;20099;-64
2021/05/03 03:33:52;;;;;;;15.35;10.77;;;9.10;71.10;;;;;;4946315;29;20078;-63
2021/05/03 03:36:18;;;;;;;13.63;10.52;;;8.90;71.40;;;;;;4946118;29;20035;-63
2021/05/03 03:38:43;;;;;;;14.60;11.25;;;8.90;71.10;;;;;;4948332;29;20038;-63
2021/05/03 03:41:09;;;;;;;14.00;9.98;;;8.90;71.40;;;;;;4946822;29;20223;-64
2021/05/03 03:43:34;;;;;;;12.82;9.95;;;9.00;71.20;;;;;;4946228;29;20055;-63
2021/05/03 03:46:00;;;;;;;15.25;9.90;;;8.90;71.00;;;;;;4946259;29;20247;-64
2021/05/03 03:48:26;;;;;;;15.07;9.90;;;9.00;71.10;;;;;;4945969;29;20063;-64
2021/05/03 03:50:51;;;;;;;12.55;8.88;;;9.10;70.90;;;;;;4947596;29;20071;-67
2021/05/03 03:53:17;;;;;;;13.80;8.93;;;9.10;70.10;;;;;;4930221;29;20035;-63
2021/05/03 03:55:42;;;;;;;12.48;8.88;;;9.10;70.10;;;;;;4945828;29;20044;-63
2021/05/03 03:58:08;;;;;;;12.48;9.18;;;9.00;69.30;;;;;;4945553;29;20055;-63
2021/05/03 04:00:33;;;;;;;12.77;8.65;;;9.00;69.70;;;;;;4945885;29;20283;-63
2021/05/03 04:03:00;;;;;;;12.93;9.10;;;9.10;69.80;;;;;;4945771;29;20331;-64
2021/05/03 04:08:00;;;;;;;11.40;8.68;;;9.00;69.60;;;;;;4946251;29;20083;-64
2021/05/03 04:13:30;;;;;;;;;;;9.00;69.70;;;;;;4930123;29;20035;-64
2021/05/03 04:26:22;;;;;;;13.85;9.50;;;8.70;69.40;;;;;;4946549;29;20196;-64
2021/05/03 04:28:50;;;;;;;11.77;9.13;;;8.80;69.60;;;;;;4945562;29;20389;-64
2021/05/03 04:31:16;;;;;;;13.57;9.90;;;8.80;69.70;;;;;;4928806;29;20051;-64
2021/05/03 04:33:42;;;;;;;15.10;9.40;;;8.70;70.00;;;;;;4928468;29;20242;-64
2021/05/03 04:36:07;;;;;;;13.77;9.48;;;8.70;70.00;;;;;;4945403;29;20035;-64
2021/05/03 04:38:33;;;;;;;13.40;9.05;;;8.70;70.00;;;;;;4947271;29;20079;-63
2021/05/03 04:40:59;;;;;;;11.85;9.02;;;8.70;70.10;;;;;;4945303;29;20043;-64
2021/05/03 04:43:24;;;;;;;13.30;9.68;;;8.90;70.00;;;;;;4945561;29;20043;-64
2021/05/03 04:45:50;;;;;;;11.75;9.00;;;8.90;70.00;;;;;;4945354;29;20055;-64
2021/05/03 04:48:16;;;;;;;14.45;9.48;;;8.90;70.10;;;;;;4945315;29;20043;-63
2021/05/03 04:50:42;;;;;;;12.07;9.13;;;9.00;69.80;;;;;;4930151;29;20023;-63
2021/05/03 04:53:08;;;;;;;13.88;10.18;;;8.90;69.40;;;;;;4945644;29;20104;-64
2021/05/03 04:55:33;;;;;;;13.52;9.43;;;8.90;69.70;;;;;;4944511;29;20079;-65
2021/05/03 04:57:59;;;;;;;13.55;9.52;;;8.90;69.90;;;;;;4944998;29;20279;-64
2021/05/03 05:00:24;;;;;;;14.35;10.18;;;8.90;69.80;;;;;;4945035;29;20092;-64
2021/05/03 05:02:50;;;;;;;14.15;9.38;;;8.90;69.90;;;;;;4947011;29;20054;-63
2021/05/03 05:05:15;;;;;;;13.02;8.52;;;8.90;70.10;;;;;;4928776;29;20263;-64
2021/05/03 05:07:41;;;;;;;12.07;9.20;;;9.00;70.10;;;;;;4945240;29;20040;-64
2021/05/03 05:10:08;;;;;;;12.68;9.05;;;9.00;70.00;;;;;;4912428;29;20035;-65
2021/05/03 05:12:33;;;;;;;12.93;9.40;;;9.00;70.00;;;;;;4927907;29;20027;-64
2021/05/03 05:14:59;;;;;;;14.45;10.05;;;8.90;70.10;;;;;;4944952;29;20031;-64
2021/05/03 05:17:24;;;;;;;12.45;9.18;;;9.00;70.20;;;;;;4946989;29;20035;-64
2021/05/03 05:19:50;;;;;;;11.27;8.38;;;9.00;70.30;;;;;;4945482;29;20143;-64
2021/05/03 05:22:16;;;;;;;12.10;8.77;;;9.10;70.30;;;;;;4944987;29;20036;-65
2021/05/03 05:24:42;;;;;;;11.20;8.68;;;9.10;70.20;;;;;;4945028;29;20087;-63
2021/05/03 05:27:08;;;;;;;12.35;8.85;;;9.10;70.50;;;;;;4944990;29;20040;-64
2021/05/03 05:29:33;;;;;;;12.07;9.02;;;9.00;70.20;;;;;;4946391;29;20028;-64
2021/05/03 05:31:59;;;;;;;11.38;8.98;;;9.10;70.50;;;;;;4945220;29;20043;-63
2021/05/03 05:34:24;;;;;;;12.13;9.38;;;9.10;70.20;;;;;;4945028;29;20239;-63
2021/05/03 05:36:50;;;;;;;13.02;9.18;;;9.10;70.40;;;;;;4944593;29;20062;-63
2021/05/03 05:39:16;;;;;;;12.05;9.38;;;9.20;70.70;;;;;;4944944;29;20866;-63
2021/05/03 05:41:41;;;;;;;13.85;9.60;;;9.20;70.40;;;;;;4946277;29;20078;-64
2021/05/03 05:44:07;;;;;;;11.40;8.60;;;9.20;70.60;;;;;;4945203;29;20078;-63
2021/05/03 05:46:34;;;;;;;13.00;9.15;;;9.20;70.60;;;;;;4927893;29;20035;-62
2021/05/03 05:48:59;;;;;;;14.13;9.43;;;9.30;70.30;;;;;;4944441;29;20070;-62
2021/05/03 05:51:25;;;;;;;13.20;8.80;;;9.30;69.70;;;;;;4944609;29;20039;-63
2021/05/03 05:53:51;;;;;;;12.32;9.25;;;9.20;69.50;;;;;;4948860;29;20035;-62
2021/05/03 05:56:16;;;;;;;11.32;8.80;;;9.10;69.70;;;;;;4948153;29;20040;-63
2021/05/03 05:58:42;;;;;;;15.40;9.95;;;9.20;70.00;;;;;;4947372;29;20058;-62
2021/05/03 06:01:07;;;;;;;13.85;9.40;;;9.20;70.00;;;;;;4946920;29;20039;-63
2021/05/03 06:03:33;;;;;;;12.52;9.88;;;9.20;70.00;;;;;;4947109;29;20391;-63
2021/05/03 06:05:58;;;;;;;11.85;8.95;;;9.30;69.80;;;;;;4946802;29;20091;-62
2021/05/03 06:08:27;;;;;;;13.32;8.85;;;9.40;69.60;;;;;;4948392;29;20035;-63
2021/05/03 06:10:53;;;;;;;12.32;8.70;;;9.40;69.40;;;;;;4930303;29;20042;-62
2021/05/03 06:13:18;;;;;;;12.82;9.75;;;9.40;69.10;;;;;;4947099;29;20322;-62
2021/05/03 06:15:44;;;;;;;12.18;9.30;;;9.40;69.00;;;;;;4946699;29;20044;-63
2021/05/03 06:18:10;;;;;;;13.35;9.60;;;9.30;68.40;;;;;;4946453;29;20032;-62
2021/05/03 06:20:35;;;;;;;12.20;8.80;;;9.40;69.30;;;;;;4948184;29;20042;-64
2021/05/03 06:23:02;;;;;;;13.93;9.40;;;9.40;68.90;;;;;;4946698;29;20351;-64
2021/05/03 06:25:28;;;;;;;11.82;8.63;;;9.50;68.60;;;;;;4929901;29;20043;-66
2021/05/03 06:27:54;;;;;;;13.77;9.43;;;9.50;68.60;;;;;;4946572;29;20063;-64
2021/05/03 06:30:22;;;;;;;14.15;9.10;;;9.60;68.20;;;;;;4946617;29;20043;-63
2021/05/03 06:32:47;;;;;;;15.50;9.35;;;9.60;68.70;;;;;;4948135;29;20075;-63
2021/05/03 06:35:13;;;;;;;12.32;9.60;;;9.70;68.50;;;;;;4929828;29;20227;-63
2021/05/03 06:37:39;;;;;;;12.75;9.85;;;9.80;68.70;;;;;;4945787;29;20266;-63
2021/05/03 06:40:05;;;;;;;12.27;9.07;;;9.80;68.50;;;;;;4946000;29;20040;-63
2021/05/03 06:42:30;;;;;;;11.38;9.02;;;9.80;68.10;;;;;;4946229;29;20039;-62
2021/05/03 06:44:56;;;;;;;14.43;9.73;;;9.90;67.80;;;;;;4946366;29;20086;-63
2021/05/03 06:47:21;;;;;;;11.95;9.40;;;9.90;67.70;;;;;;4947993;29;20310;-63
2021/05/03 06:49:47;;;;;;;12.95;9.20;;;10.10;67.80;;;;;;4946540;29;20079;-63
2021/05/03 06:52:13;;;;;;;15.23;9.73;;;10.30;67.20;;;;;;4946462;29;20087;-63
2021/05/03 06:54:38;;;;;;;12.27;9.10;;;10.30;67.30;;;;;;4946406;29;20035;-64
2021/05/03 06:57:04;;;;;;;13.63;9.90;;;10.40;66.90;;;;;;4946086;29;20105;-63
2021/05/03 06:59:29;;;;;;;12.95;9.77;;;10.30;66.70;;;;;;4931730;29;517615;-63
2021/05/03 07:01:55;;;;;;;13.40;9.80;;;10.30;66.70;;;;;;4947451;29;20031;-63
2021/05/03 07:04:21;;;;;;;14.93;10.00;;;10.30;66.50;;;;;;4929937;29;20299;-63
2021/05/03 07:06:47;;;;;;;14.25;10.50;;;10.40;66.70;;;;;;4946632;29;20044;-63
2021/05/03 07:09:12;;;;;;;14.40;10.18;;;10.40;66.40;;;;;;4947072;29;20248;-66
2021/05/03 07:11:39;;;;;;;14.35;9.77;;;10.40;66.70;;;;;;4948616;29;20031;-63
2021/05/03 07:14:06;;;;;;;12.38;8.68;;;10.50;66.60;;;;;;4947599;29;20035;-63
2021/05/03 07:16:31;;;;;;;13.35;9.38;;;10.60;66.00;;;;;;4946884;29;20274;-64
2021/05/03 07:18:57;;;;;;;13.75;9.27;;;10.70;65.60;;;;;;4946990;29;20036;-64
2021/05/03 07:21:23;;;;;;;11.90;8.90;;;10.80;65.20;;;;;;4946770;29;20196;-64
2021/05/03 07:23:50;;;;;;;13.68;8.88;;;10.80;64.80;;;;;;4948298;29;20103;-63
2021/05/03 07:26:15;;;;;;;23.40;9.10;;;10.80;63.90;;;;;;4930001;29;20047;-63
2021/05/03 07:28:41;;;;;;;14.02;8.82;;;10.90;63.30;;;;;;4946948;29;20359;-63
2021/05/03 07:31:07;;;;;;;12.55;9.02;;;11.00;63.90;;;;;;4946554;29;20394;-63
2021/05/03 07:33:33;;;;;;;12.20;8.63;;;11.30;62.70;;;;;;4946478;29;20051;-63
2021/05/03 07:35:58;;;;;;;12.02;8.02;;;11.30;62.30;;;;;;4946731;29;20062;-62
2021/05/03 07:38:24;;;;;;;12.77;8.75;;;11.30;62.50;;;;;;4948081;29;20039;-62
2021/05/03 07:40:49;;;;;;;17.25;9.13;;;11.30;62.20;;;;;;4946723;29;20060;-63
2021/05/03 07:43:15;;;;;;;11.15;8.00;;;11.30;62.50;;;;;;4946070;29;20036;-63
2021/05/03 07:45:41;;;;;;;13.10;8.60;;;11.30;62.00;;;;;;4946227;29;20095;-64
2021/05/03 07:48:07;;;;;;;11.95;8.00;;;11.20;61.50;;;;;;4946376;29;20259;-64
2021/05/03 07:50:32;;;;;;;11.57;8.02;;;11.20;60.50;;;;;;4948090;29;20311;-64
2021/05/03 07:52:58;;;;;;;10.48;7.80;;;11.20;60.80;;;;;;4946607;29;20262;-63
2021/05/03 07:55:24;;;;;;;11.80;7.72;;;11.30;61.20;;;;;;4946023;29;20144;-63
2021/05/03 07:57:50;;;;;;;14.32;7.50;;;11.30;61.10;;;;;;4945728;29;20052;-63
2021/05/03 08:00:17;;;;;;;12.30;7.28;;;11.30;60.10;;;;;;4946025;29;20032;-63
2021/05/03 08:02:42;;;;;;;11.88;7.53;;;11.30;59.80;;;;;;4947590;29;20094;-63
2021/05/03 08:05:08;;;;;;;11.15;7.15;;;11.30;59.90;;;;;;4946486;29;20039;-64
2021/05/03 08:07:33;;;;;;;10.40;7.32;;;11.30;58.80;;;;;;4929312;29;20067;-63
2021/05/03 08:09:59;;;;;;;9.73;6.88;;;11.40;58.70;;;;;;4929117;29;20219;-63
2021/05/03 08:12:25;;;;;;;13.05;6.78;;;11.30;57.80;;;;;;4946089;29;20044;-64
2021/05/03 08:14:52;;;;;;;11.82;7.28;;;11.40;58.10;;;;;;4947196;29;20199;-63
2021/05/03 08:17:18;;;;;;;12.50;7.10;;;11.40;57.50;;;;;;4945939;29;20115;-64
2021/05/03 08:19:45;;;;;;;12.23;7.00;;;11.40;58.00;;;;;;4946102;29;20038;-63
2021/05/03 08:22:11;;;;;;;9.60;7.13;;;11.40;57.50;;;;;;4929306;29;20040;-63
2021/05/03 08:24:37;;;;;;;12.10;7.53;;;11.50;58.40;;;;;;4945590;29;20044;-63
2021/05/03 08:27:03;;;;;;;9.50;6.78;;;11.50;57.70;;;;;;4945628;29;20031;-64
2021/05/03 08:29:29;;;;;;;9.90;7.10;;;11.40;57.50;;;;;;4947663;29;20028;-63
2021/05/03 08:31:56;;;;;;;11.45;7.05;;;11.50;57.70;;;;;;4945515;29;20050;-64
2021/05/03 08:34:21;;;;;;;10.38;6.43;;;11.50;57.70;;;;;;4945689;29;20268;-63
2021/05/03 08:36:49;;;;;;;10.25;6.30;;;11.50;57.50;;;;;;4945475;29;20046;-63
2021/05/03 08:39:14;;;;;;;10.95;6.70;;;11.50;57.20;;;;;;4945927;29;20035;-64
2021/05/03 08:41:40;;;;;;;10.27;7.32;;;11.60;57.00;;;;;;4947436;29;20023;-63
2021/05/03 08:44:07;;;;;;;10.75;6.75;;;11.60;57.10;;;;;;4945512;29;20063;-64
2021/05/03 08:46:38;;;;;;;10.93;7.15;;;11.60;57.20;;;;;;4945625;29;20079;-64
2021/05/03 08:49:16;;;;;;;9.18;6.40;;;11.60;57.40;;;;;;4945168;29;20039;-64
2021/05/03 08:51:56;;;;;;;10.35;6.90;;;11.50;57.10;;;;;;4930018;29;20079;-64
2021/05/03 08:56:50;;;;;;;9.50;5.63;;;11.10;57.90;;;;;;4930521;29;20046;-63
2021/05/03 08:59:16;;;;;;;10.07;6.03;;;10.90;58.00;;;;;;4944095;29;20055;-64
2021/05/03 09:01:48;;;;;;;9.60;6.10;;;10.80;60.00;;;;;;4912165;29;20219;-64
2021/05/03 09:04:15;;;;;;;13.60;6.32;;;10.80;60.20;;;;;;4945058;29;20039;-65
2021/05/03 09:07:05;;;;;;;8.68;6.25;;;10.70;60.50;;;;;;4928503;29;20106;-64
2021/05/03 09:09:35;;;;;;;10.10;6.78;;;10.80;62.80;;;;;;4945095;29;20038;-64
2021/05/03 09:12:02;;;;;;;10.30;6.35;;;10.90;62.20;;;;;;4945346;29;20304;-63
2021/05/03 09:14:29;;;;;;;10.77;6.60;;;11.00;60.10;;;;;;4914198;29;20020;-64
2021/05/03 09:16:55;;;;;;;10.32;7.13;;;11.30;61.70;;;;;;4928461;29;20035;-63
2021/05/03 09:19:20;;;;;;;11.50;7.40;;;11.50;61.80;;;;;;4944533;29;20098;-63
2021/05/03 09:21:46;;;;;;;12.75;7.07;;;11.70;59.70;;;;;;4927969;29;20083;-64
2021/05/03 09:24:22;;;;;;;10.32;6.95;;;11.90;60.30;;;;;;4943862;29;20047;-63
2021/05/03 09:27:11;;;;;;;7.63;5.20;;;12.10;61.40;;;;;;4946578;29;20027;-63
2021/05/03 09:29:44;;;;;;;7.80;5.30;;;12.30;55.50;;;;;;4949174;29;20034;-64
2021/05/03 09:32:19;;;;;;;8.18;5.32;;;12.40;56.20;;;;;;4930777;29;20042;-65
2021/05/03 09:34:49;;;;;;;6.60;4.65;;;12.50;55.90;;;;;;4932719;29;20032;-64
2021/05/03 09:37:34;;;;;;;7.38;4.20;;;12.50;53.60;;;;;;4916579;29;20230;-64
2021/05/03 09:40:09;;;;;;;5.97;4.28;;;12.60;54.10;;;;;;4948658;29;20043;-63
2021/05/03 09:42:41;;;;;;;5.93;4.05;;;12.70;53.10;;;;;;4948580;29;20264;-65
2021/05/03 09:45:12;;;;;;;9.32;4.88;;;12.70;48.80;;;;;;4948654;29;20325;-64
2021/05/03 09:47:39;;;;;;;9.38;5.10;;;12.80;52.40;;;;;;4950213;29;20032;-64
2021/05/03 09:50:07;;;;;;;6.35;4.70;;;13.00;52.50;;;;;;4948600;29;20046;-65
2021/05/03 09:52:33;;;;;;;7.70;5.38;;;13.20;53.30;;;;;;4948180;29;20036;-65
2021/05/03 09:54:58;;;;;;;8.82;5.00;;;13.30;53.60;;;;;;4948254;29;20218;-65
2021/05/03 09:57:24;;;;;;;7.43;4.53;;;13.40;52.80;;;;;;4947394;29;20122;-65
2021/05/03 09:59:52;;;;;;;7.80;4.97;;;13.50;53.60;;;;;;4949865;29;20322;-64
2021/05/03 10:02:25;;;;;;;7.47;4.93;;;13.50;53.20;;;;;;4948646;29;20038;-65
2021/05/03 10:05:03;;;;;;;6.88;5.25;;;13.50;52.00;;;;;;4948775;29;20035;-65
2021/05/03 10:07:29;;;;;;;6.25;4.75;;;13.50;53.00;;;;;;4930939;29;20058;-65
2021/05/03 10:10:02;;;;;;;6.68;4.72;;;13.40;52.50;;;;;;4947826;29;20035;-64
2021/05/03 10:12:28;;;;;;;6.75;4.55;;;13.30;51.60;;;;;;4948386;29;20204;-64
2021/05/03 10:14:54;;;;;;;6.78;4.40;;;13.20;51.10;;;;;;4948014;29;20087;-64
2021/05/03 10:17:20;;;;;;;5.78;4.15;;;13.30;51.00;;;;;;4950006;29;20040;-64
2021/05/03 10:19:45;;;;;;;13.18;4.55;;;13.30;51.80;;;;;;4947951;29;20280;-64
2021/05/03 10:22:16;;;;;;;9.23;4.32;;;13.30;51.50;;;;;;4947747;29;20268;-66
2021/05/03 10:24:42;;;;;;;6.00;4.00;;;13.50;51.70;;;;;;4948074;29;20043;-66
2021/05/03 10:27:08;;;;;;;6.68;4.15;;;13.60;49.90;;;;;;4930556;29;20043;-66
2021/05/03 10:29:40;;;;;;;6.18;3.85;;;13.60;48.80;;;;;;4932669;29;20055;-66
2021/05/03 10:32:07;;;;;;;9.35;3.42;;;13.80;47.60;;;;;;4948405;29;20055;-66
2021/05/03 10:34:36;;;;;;;4.78;3.30;;;13.90;47.60;;;;;;4931213;29;20039;-65
2021/05/03 10:37:02;;;;;;;6.47;3.40;;;14.10;46.80;;;;;;4947618;29;20040;-65
2021/05/03 10:39:28;;;;;;;7.78;3.20;;;14.20;46.40;;;;;;4947268;29;20043;-65
2021/05/03 10:42:04;;;;;;;6.70;3.05;;;14.30;45.60;;;;;;4947648;29;20034;-66
2021/05/03 10:44:30;;;;;;;7.28;3.00;;;14.30;44.70;;;;;;4932213;29;20050;-66
2021/05/03 10:47:04;;;;;;;4.25;2.97;;;14.20;43.60;;;;;;4947762;29;20327;-64
2021/05/03 10:49:36;;;;;;;4.07;3.00;;;14.20;44.60;;;;;;4947662;29;20063;-64
2021/05/03 10:52:04;;;;;;;5.28;3.20;;;14.10;43.60;;;;;;4947779;29;20169;-64
2021/05/03 10:57:02;;;;;;;4.80;3.47;;;14.00;41.20;;;;;;4946964;29;20218;-64
2021/05/03 10:59:52;;;;;;;7.75;3.92;;;14.20;43.20;;;;;;4931936;29;20102;-66
2021/05/03 11:02:18;;;;;;;6.05;4.28;;;14.30;44.00;;;;;;4931093;29;20075;-65
2021/05/03 11:05:15;;;;;;;10.40;4.55;;;14.40;46.30;;;;;;4946867;29;20040;-66
2021/05/03 11:08:04;;;;;;;6.75;4.47;;;14.60;46.20;;;;;;4930304;29;20043;-66
2021/05/03 11:11:02;;;;;;;7.20;5.25;;;14.70;47.10;;;;;;4937353;29;20097;-64
2021/05/03 11:13:40;;;;;;;12.18;5.28;;;14.60;47.40;;;;;;4905337;29;20095;-66
2021/05/03 11:16:31;;;;;;;8.23;5.07;;;14.50;44.50;;;;;;4946615;29;20028;-65
2021/05/03 11:19:01;;;;;;;6.93;5.18;;;14.50;44.90;;;;;;4946520;29;20094;-66
2021/05/03 11:21:47;;;;;;;6.63;4.75;;;14.80;47.60;;;;;;4946983;29;20422;-65
2021/05/03 11:24:20;;;;;;;9.25;5.15;;;15.00;47.30;;;;;;4929955;29;20249;-63
2021/05/03 11:26:47;;;;;;;9.80;5.47;;;15.00;45.70;;;;;;4931867;29;20070;-63
2021/05/03 11:29:18;;;;;;;7.43;5.40;;;15.00;47.30;;;;;;4929974;29;20039;-64
2021/05/03 11:31:44;;;;;;;8.45;5.15;;;15.10;47.30;;;;;;4946904;29;20095;-63
2021/05/03 11:34:25;;;;;;;7.80;5.20;;;15.00;47.20;;;;;;4945517;29;20039;-64
2021/05/03 11:37:03;;;;;;;6.43;4.60;;;15.00;46.90;;;;;;4946449;29;20043;-64
2021/05/03 11:47:26;;;;;;;7.20;4.90;;;14.90;46.30;;;;;;4930547;29;20095;-72
2021/05/03 11:49:51;;;;;;;10.77;4.65;;;14.90;46.60;;;;;;4944803;29;20035;-65
2021/05/03 11:52:28;;;;;;;8.73;5.15;;;14.80;46.50;;;;;;4946284;29;20083;-65
2021/05/03 11:54:55;;;;;;;7.88;5.10;;;14.80;46.80;;;;;;4945378;29;20088;-65
2021/05/03 11:57:21;;;;;;;6.32;4.90;;;14.80;47.10;;;;;;4946071;29;20099;-65
2021/05/03 11:59:47;;;;;;;9.23;5.22;;;14.80;46.90;;;;;;4947471;29;20062;-66
2021/05/03 12:02:14;;;;;;;11.30;5.53;;;14.60;45.20;;;;;;4946197;29;20036;-64
2021/05/03 12:04:43;;;;;;;7.45;4.97;;;14.60;47.30;;;;;;4929126;29;20039;-65
2021/05/03 12:07:11;;;;;;;8.20;4.72;;;14.60;48.20;;;;;;4946198;29;20048;-64
2021/05/03 12:09:37;;;;;;;10.68;6.10;;;14.60;47.80;;;;;;4946002;29;20028;-66
2021/05/03 12:12:04;;;;;;;7.03;5.30;;;14.50;47.20;;;;;;4928840;29;20219;-63
2021/05/03 12:14:43;;;;;;;16.92;5.75;;;14.40;45.20;;;;;;4947912;29;20083;-65
2021/05/03 12:17:18;;;;;;;10.48;6.20;;;14.40;47.40;;;;;;4945720;29;20048;-64
2021/05/03 12:19:45;;;;;;;11.82;6.85;;;14.60;47.30;;;;;;4946024;29;20124;-64
2021/05/03 12:22:10;;;;;;;8.77;5.72;;;14.70;47.70;;;;;;4945905;29;20047;-64
2021/05/03 12:24:39;;;;;;;14.77;6.05;;;14.90;45.50;;;;;;4945505;29;20315;-64
2021/05/03 12:27:05;;;;;;;6.20;4.47;;;15.00;46.60;;;;;;4945042;29;20078;-64
2021/05/03 12:29:30;;;;;;;8.27;5.40;;;15.10;46.00;;;;;;4947350;29;20032;-63
2021/05/03 12:31:56;;;;;;;8.18;5.22;;;15.00;45.80;;;;;;4945813;29;20103;-64
2021/05/03 12:34:23;;;;;;;6.35;4.93;;;15.00;45.70;;;;;;4945357;29;20039;-64
2021/05/03 12:37:08;;;;;;;6.78;4.95;;;14.90;45.80;;;;;;4928615;29;20338;-63
2021/05/03 12:39:35;;;;;;;6.28;4.50;;;14.90;46.50;;;;;;4945753;29;20082;-64
2021/05/03 12:42:30;;;;;;;7.43;4.63;;;14.90;44.80;;;;;;4945163;29;20039;-64
2021/05/03 12:44:58;;;;;;;6.13;3.97;;;15.10;46.10;;;;;;4929503;29;20075;-64
2021/05/03 12:47:33;;;;;;;5.47;3.90;;;15.20;44.40;;;;;;4914771;29;20196;-64
2021/05/03 12:50:27;;;;;;;5.43;3.60;;;15.30;46.00;;;;;;4945702;29;20381;-65
2021/05/03 12:53:05;;;;;;;5.07;3.70;;;15.40;45.20;;;;;;4944955;29;20035;-65
2021/05/03 12:55:32;;;;;;;4.78;3.65;;;15.50;42.60;;;;;;4913571;29;20039;-64
2021/05/03 12:58:08;;;;;;;14.40;4.00;;;15.60;40.50;;;;;;4944733;29;20054;-64
2021/05/03 13:00:54;;;;;;;3.70;3.05;;;15.70;41.70;;;;;;4945128;29;20040;-64
2021/05/03 13:09:29;;;;;;;5.80;3.80;;;15.50;41.50;;;;;;4947021;29;20059;-64
2021/05/03 13:12:44;;;;;;;4.05;2.60;;;15.50;41.00;;;;;;4944215;29;20367;-64
2021/05/03 13:29:16;;;;;;;5.15;3.40;;;15.30;40.30;;;;;;4945221;29;20119;-64
2021/05/03 13:31:43;;;;;;;4.13;3.10;;;15.30;40.00;;;;;;4944743;29;20050;-65
2021/05/03 13:34:12;;;;;;;6.88;3.47;;;15.40;40.50;;;;;;4944798;29;20070;-64
2021/05/03 13:36:38;;;;;;;3.63;2.72;;;15.50;39.80;;;;;;4944682;29;20043;-64
2021/05/03 13:39:07;;;;;;;5.45;3.15;;;15.50;38.10;;;;;;4944738;29;20063;-64